sensor_id;sensor_type;location;lat;lon;timestamp;temperature;humidity
20091;DHT22;10205;49.678;6.560;2023-03-26T00:01:19;12.60;64.60
20091;DHT22;10205;49.678;6.560;2023-03-26T00:03:49;12.60;64.50
20091;DHT22;10205;49.678;6.560;2023-03-26T00:06:19;12.60;64.60
20091;DHT22;10205;49.678;6.560;2023-03-26T00:08:49;12.60;64.60
20091;DHT22;10205;49.678;6.560;2023-03-26T00:11:20;12.50;64.60
20091;DHT22;10205;49.678;6.560;2023-03-26T00:13:49;12.50;64.60
20091;DHT22;10205;49.678;6.560;2023-03-26T00:16:18;12.50;64.50
20091;DHT22;10205;49.678;6.560;2023-03-26T00:18:46;12.50;64.60
20091;DHT22;10205;49.678;6.560;2023-03-26T00:21:15;12.50;64.70
20091;DHT22;10205;49.678;6.560;2023-03-26T00:23:45;12.50;64.80
20091;DHT22;10205;49.678;6.560;2023-03-26T00:26:13;12.50;64.70
20091;DHT22;10205;49.678;6.560;2023-03-26T00:28:43;12.50;64.80
20091;DHT22;10205;49.678;6.560;2023-03-26T00:31:13;12.50;65.00
20091;DHT22;10205;49.678;6.560;2023-03-26T00:33:43;12.50;64.90
20091;DHT22;10205;49.678;6.560;2023-03-26T00:36:13;12.50;65.00
20091;DHT22;10205;49.678;6.560;2023-03-26T00:38:44;12.50;65.00
20091;DHT22;10205;49.678;6.560;2023-03-26T00:41:15;12.50;65.00
20091;DHT22;10205;49.678;6.560;2023-03-26T00:43:49;12.40;65.10
20091;DHT22;10205;49.678;6.560;2023-03-26T00:46:18;12.40;65.10
20091;DHT22;10205;49.678;6.560;2023-03-26T00:48:45;12.40;65.00
20091;DHT22;10205;49.678;6.560;2023-03-26T00:51:14;12.40;64.90
20091;DHT22;10205;49.678;6.560;2023-03-26T00:53:43;12.40;65.00
20091;DHT22;10205;49.678;6.560;2023-03-26T00:56:12;12.40;65.00
20091;DHT22;10205;49.678;6.560;2023-03-26T00:58:40;12.40;65.10
20091;DHT22;10205;49.678;6.560;2023-03-26T01:01:10;12.40;65.10
20091;DHT22;10205;49.678;6.560;2023-03-26T01:03:40;12.40;65.20
20091;DHT22;10205;49.678;6.560;2023-03-26T01:06:11;12.40;65.10
20091;DHT22;10205;49.678;6.560;2023-03-26T01:08:46;12.40;65.10
20091;DHT22;10205;49.678;6.560;2023-03-26T01:11:17;12.40;65.10
20091;DHT22;10205;49.678;6.560;2023-03-26T01:13:48;12.40;65.20
20091;DHT22;10205;49.678;6.560;2023-03-26T01:16:23;12.40;65.00
20091;DHT22;10205;49.678;6.560;2023-03-26T01:18:53;12.40;65.20
20091;DHT22;10205;49.678;6.560;2023-03-26T01:21:25;12.40;65.10
20091;DHT22;10205;49.678;6.560;2023-03-26T01:23:58;12.40;65.10
20091;DHT22;10205;49.678;6.560;2023-03-26T01:26:57;12.40;65.20
20091;DHT22;10205;49.678;6.560;2023-03-26T01:29:42;12.40;65.40
20091;DHT22;10205;49.678;6.560;2023-03-26T01:32:23;12.40;65.10
20091;DHT22;10205;49.678;6.560;2023-03-26T01:35:08;12.40;65.20
20091;DHT22;10205;49.678;6.560;2023-03-26T01:37:52;12.40;65.20
20091;DHT22;10205;49.678;6.560;2023-03-26T01:40:41;12.40;65.00
20091;DHT22;10205;49.678;6.560;2023-03-26T01:43:22;12.40;65.00
20091;DHT22;10205;49.678;6.560;2023-03-26T01:45:55;12.40;65.00
20091;DHT22;10205;49.678;6.560;2023-03-26T01:48:34;12.40;64.90
20091;DHT22;10205;49.678;6.560;2023-03-26T01:51:04;12.40;65.10
20091;DHT22;10205;49.678;6.560;2023-03-26T01:53:35;12.40;64.80
20091;DHT22;10205;49.678;6.560;2023-03-26T01:56:14;12.40;64.80
20091;DHT22;10205;49.678;6.560;2023-03-26T01:58:59;12.40;65.10
20091;DHT22;10205;49.678;6.560;2023-03-26T02:01:39;12.40;65.10
20091;DHT22;10205;49.678;6.560;2023-03-26T02:04:17;12.40;65.00
20091;DHT22;10205;49.678;6.560;2023-03-26T02:06:53;12.40;65.10
20091;DHT22;10205;49.678;6.560;2023-03-26T02:09:29;12.40;65.00
20091;DHT22;10205;49.678;6.560;2023-03-26T02:12:05;12.40;64.90
20091;DHT22;10205;49.678;6.560;2023-03-26T02:14:34;12.40;64.90
20091;DHT22;10205;49.678;6.560;2023-03-26T02:17:02;12.40;64.80
20091;DHT22;10205;49.678;6.560;2023-03-26T02:19:29;12.40;64.80
20091;DHT22;10205;49.678;6.560;2023-03-26T02:21:56;12.40;65.00
20091;DHT22;10205;49.678;6.560;2023-03-26T02:24:25;12.40;65.00
20091;DHT22;10205;49.678;6.560;2023-03-26T02:26:52;12.40;65.00
20091;DHT22;10205;49.678;6.560;2023-03-26T02:29:21;12.40;64.90
20091;DHT22;10205;49.678;6.560;2023-03-26T02:31:51;12.40;64.90
20091;DHT22;10205;49.678;6.560;2023-03-26T02:34:18;12.30;64.80
20091;DHT22;10205;49.678;6.560;2023-03-26T02:36:45;12.40;65.00
20091;DHT22;10205;49.678;6.560;2023-03-26T02:39:12;12.40;65.10
20091;DHT22;10205;49.678;6.560;2023-03-26T02:41:39;12.40;65.10
20091;DHT22;10205;49.678;6.560;2023-03-26T02:44:06;12.40;65.10
20091;DHT22;10205;49.678;6.560;2023-03-26T02:46:35;12.40;65.20
20091;DHT22;10205;49.678;6.560;2023-03-26T02:49:02;12.40;65.20
20091;DHT22;10205;49.678;6.560;2023-03-26T02:51:29;12.40;65.20
20091;DHT22;10205;49.678;6.560;2023-03-26T02:53:59;12.40;65.10
20091;DHT22;10205;49.678;6.560;2023-03-26T02:56:27;12.40;65.10
20091;DHT22;10205;49.678;6.560;2023-03-26T02:58:54;12.40;65.20
20091;DHT22;10205;49.678;6.560;2023-03-26T03:01:22;12.40;66.00
20091;DHT22;10205;49.678;6.560;2023-03-26T03:03:50;12.40;65.10
20091;DHT22;10205;49.678;6.560;2023-03-26T03:06:17;12.40;65.20
20091;DHT22;10205;49.678;6.560;2023-03-26T03:08:45;12.40;65.40
20091;DHT22;10205;49.678;6.560;2023-03-26T03:11:14;12.40;65.40
20091;DHT22;10205;49.678;6.560;2023-03-26T03:13:43;12.30;65.60
20091;DHT22;10205;49.678;6.560;2023-03-26T03:16:10;12.40;65.50
20091;DHT22;10205;49.678;6.560;2023-03-26T03:18:37;12.40;65.70
20091;DHT22;10205;49.678;6.560;2023-03-26T03:21:07;12.40;65.60
20091;DHT22;10205;49.678;6.560;2023-03-26T03:23:34;12.40;65.70
20091;DHT22;10205;49.678;6.560;2023-03-26T03:26:01;12.30;66.00
20091;DHT22;10205;49.678;6.560;2023-03-26T03:28:28;12.30;65.80
20091;DHT22;10205;49.678;6.560;2023-03-26T03:30:55;12.40;65.70
20091;DHT22;10205;49.678;6.560;2023-03-26T03:33:23;12.30;65.60
20091;DHT22;10205;49.678;6.560;2023-03-26T03:35:50;12.30;65.60
20091;DHT22;10205;49.678;6.560;2023-03-26T03:38:19;12.30;65.70
20091;DHT22;10205;49.678;6.560;2023-03-26T03:40:46;12.30;65.60
20091;DHT22;10205;49.678;6.560;2023-03-26T03:43:13;12.30;65.70
20091;DHT22;10205;49.678;6.560;2023-03-26T03:45:40;12.30;65.60
20091;DHT22;10205;49.678;6.560;2023-03-26T03:48:07;12.30;65.60
20091;DHT22;10205;49.678;6.560;2023-03-26T03:50:35;12.30;65.70
20091;DHT22;10205;49.678;6.560;2023-03-26T03:53:03;12.30;65.90
20091;DHT22;10205;49.678;6.560;2023-03-26T03:55:32;12.30;65.90
20091;DHT22;10205;49.678;6.560;2023-03-26T03:58:02;12.30;66.00
20091;DHT22;10205;49.678;6.560;2023-03-26T04:00:30;12.30;65.90
20091;DHT22;10205;49.678;6.560;2023-03-26T04:02:57;12.30;66.10
20091;DHT22;10205;49.678;6.560;2023-03-26T04:05:30;12.30;66.00
20091;DHT22;10205;49.678;6.560;2023-03-26T04:07:57;12.30;66.00
20091;DHT22;10205;49.678;6.560;2023-03-26T04:10:25;12.20;66.10
20091;DHT22;10205;49.678;6.560;2023-03-26T04:12:54;12.30;66.30
20091;DHT22;10205;49.678;6.560;2023-03-26T04:15:21;12.30;66.60
20091;DHT22;10205;49.678;6.560;2023-03-26T04:17:48;12.20;66.50
20091;DHT22;10205;49.678;6.560;2023-03-26T04:20:16;12.20;66.80
20091;DHT22;10205;49.678;6.560;2023-03-26T04:22:44;12.20;66.80
20091;DHT22;10205;49.678;6.560;2023-03-26T04:25:12;12.20;66.60
20091;DHT22;10205;49.678;6.560;2023-03-26T04:27:40;12.20;66.70
20091;DHT22;10205;49.678;6.560;2023-03-26T04:30:13;12.20;66.80
20091;DHT22;10205;49.678;6.560;2023-03-26T04:32:45;12.20;67.10
20091;DHT22;10205;49.678;6.560;2023-03-26T04:35:15;12.20;67.10
20091;DHT22;10205;49.678;6.560;2023-03-26T04:37:44;12.20;66.90
20091;DHT22;10205;49.678;6.560;2023-03-26T04:40:14;12.20;67.20
20091;DHT22;10205;49.678;6.560;2023-03-26T04:42:43;12.20;67.40
20091;DHT22;10205;49.678;6.560;2023-03-26T04:45:13;12.20;67.20
20091;DHT22;10205;49.678;6.560;2023-03-26T04:47:46;12.20;67.20
20091;DHT22;10205;49.678;6.560;2023-03-26T04:50:15;12.20;67.10
20091;DHT22;10205;49.678;6.560;2023-03-26T04:52:42;12.10;67.00
20091;DHT22;10205;49.678;6.560;2023-03-26T04:55:15;12.10;67.30
20091;DHT22;10205;49.678;6.560;2023-03-26T04:57:51;12.10;67.50
20091;DHT22;10205;49.678;6.560;2023-03-26T05:00:24;12.10;67.30
20091;DHT22;10205;49.678;6.560;2023-03-26T05:02:52;12.10;67.30
20091;DHT22;10205;49.678;6.560;2023-03-26T05:05:22;12.10;67.50
20091;DHT22;10205;49.678;6.560;2023-03-26T05:07:50;12.10;67.50
20091;DHT22;10205;49.678;6.560;2023-03-26T05:10:17;12.10;67.70
20091;DHT22;10205;49.678;6.560;2023-03-26T05:12:45;12.10;67.60
20091;DHT22;10205;49.678;6.560;2023-03-26T05:15:13;12.10;67.40
20091;DHT22;10205;49.678;6.560;2023-03-26T05:17:42;12.10;67.20
20091;DHT22;10205;49.678;6.560;2023-03-26T05:20:16;12.10;67.50
20091;DHT22;10205;49.678;6.560;2023-03-26T05:22:45;12.10;67.60
20091;DHT22;10205;49.678;6.560;2023-03-26T05:25:13;12.10;67.40
20091;DHT22;10205;49.678;6.560;2023-03-26T05:27:41;12.10;67.20
20091;DHT22;10205;49.678;6.560;2023-03-26T05:30:12;12.10;67.20
20091;DHT22;10205;49.678;6.560;2023-03-26T05:32:42;12.10;67.20
20091;DHT22;10205;49.678;6.560;2023-03-26T05:35:09;12.10;67.30
20091;DHT22;10205;49.678;6.560;2023-03-26T05:37:37;12.10;67.70
20091;DHT22;10205;49.678;6.560;2023-03-26T05:40:06;12.10;67.80
20091;DHT22;10205;49.678;6.560;2023-03-26T05:42:37;12.10;67.60
20091;DHT22;10205;49.678;6.560;2023-03-26T05:45:06;12.10;67.60
20091;DHT22;10205;49.678;6.560;2023-03-26T05:47:34;12.10;67.80
20091;DHT22;10205;49.678;6.560;2023-03-26T05:50:04;12.10;67.70
20091;DHT22;10205;49.678;6.560;2023-03-26T05:52:32;12.10;68.10
20091;DHT22;10205;49.678;6.560;2023-03-26T05:54:59;12.10;68.20
20091;DHT22;10205;49.678;6.560;2023-03-26T05:57:28;12.10;67.90
20091;DHT22;10205;49.678;6.560;2023-03-26T05:59:55;12.10;68.00
20091;DHT22;10205;49.678;6.560;2023-03-26T06:02:22;12.10;68.00
20091;DHT22;10205;49.678;6.560;2023-03-26T06:04:49;12.10;68.00
20091;DHT22;10205;49.678;6.560;2023-03-26T06:07:19;12.10;67.80
20091;DHT22;10205;49.678;6.560;2023-03-26T06:09:46;12.00;67.90
20091;DHT22;10205;49.678;6.560;2023-03-26T06:12:13;12.00;67.60
20091;DHT22;10205;49.678;6.560;2023-03-26T06:14:41;12.00;67.70
20091;DHT22;10205;49.678;6.560;2023-03-26T06:17:08;12.00;67.90
20091;DHT22;10205;49.678;6.560;2023-03-26T06:19:39;12.00;67.70
20091;DHT22;10205;49.678;6.560;2023-03-26T06:22:06;12.00;67.70
20091;DHT22;10205;49.678;6.560;2023-03-26T06:24:35;12.00;67.60
20091;DHT22;10205;49.678;6.560;2023-03-26T06:27:02;12.00;67.80
20091;DHT22;10205;49.678;6.560;2023-03-26T06:29:29;12.00;67.90
20091;DHT22;10205;49.678;6.560;2023-03-26T06:31:56;12.00;67.70
20091;DHT22;10205;49.678;6.560;2023-03-26T06:34:24;12.00;67.80
20091;DHT22;10205;49.678;6.560;2023-03-26T06:36:51;12.00;68.60
20091;DHT22;10205;49.678;6.560;2023-03-26T06:39:18;12.00;67.60
20091;DHT22;10205;49.678;6.560;2023-03-26T06:41:47;12.00;67.60
20091;DHT22;10205;49.678;6.560;2023-03-26T06:44:14;12.00;67.70
20091;DHT22;10205;49.678;6.560;2023-03-26T06:46:41;12.00;68.40
20091;DHT22;10205;49.678;6.560;2023-03-26T06:49:08;12.00;67.60
20091;DHT22;10205;49.678;6.560;2023-03-26T06:51:35;12.00;67.60
20091;DHT22;10205;49.678;6.560;2023-03-26T06:54:05;11.90;67.80
20091;DHT22;10205;49.678;6.560;2023-03-26T06:56:32;12.00;67.80
20091;DHT22;10205;49.678;6.560;2023-03-26T06:59:01;12.00;67.90
20091;DHT22;10205;49.678;6.560;2023-03-26T07:01:28;12.00;68.20
20091;DHT22;10205;49.678;6.560;2023-03-26T07:03:55;12.00;67.90
20091;DHT22;10205;49.678;6.560;2023-03-26T07:06:22;11.90;67.80
20091;DHT22;10205;49.678;6.560;2023-03-26T07:08:50;11.90;67.90
20091;DHT22;10205;49.678;6.560;2023-03-26T07:11:17;11.90;68.30
20091;DHT22;10205;49.678;6.560;2023-03-26T07:13:45;11.90;68.20
20091;DHT22;10205;49.678;6.560;2023-03-26T07:16:13;11.90;68.20
20091;DHT22;10205;49.678;6.560;2023-03-26T07:18:41;11.90;68.50
20091;DHT22;10205;49.678;6.560;2023-03-26T07:21:09;11.90;68.50
20091;DHT22;10205;49.678;6.560;2023-03-26T07:23:37;11.90;68.40
20091;DHT22;10205;49.678;6.560;2023-03-26T07:26:16;11.90;68.60
20091;DHT22;10205;49.678;6.560;2023-03-26T07:28:54;11.90;69.00
20091;DHT22;10205;49.678;6.560;2023-03-26T07:31:31;11.90;69.00
20091;DHT22;10205;49.678;6.560;2023-03-26T07:34:16;11.90;69.20
20091;DHT22;10205;49.678;6.560;2023-03-26T07:37:00;11.90;69.40
20091;DHT22;10205;49.678;6.560;2023-03-26T07:39:45;11.90;69.60
20091;DHT22;10205;49.678;6.560;2023-03-26T07:42:27;11.90;70.50
20091;DHT22;10205;49.678;6.560;2023-03-26T07:45:13;11.90;69.60
20091;DHT22;10205;49.678;6.560;2023-03-26T07:47:50;11.90;70.30
20091;DHT22;10205;49.678;6.560;2023-03-26T07:50:21;11.90;70.20
20091;DHT22;10205;49.678;6.560;2023-03-26T07:52:50;11.90;70.40
20091;DHT22;10205;49.678;6.560;2023-03-26T07:55:18;12.00;70.50
20091;DHT22;10205;49.678;6.560;2023-03-26T07:57:54;12.00;70.70
20091;DHT22;10205;49.678;6.560;2023-03-26T08:00:35;11.90;70.60
20091;DHT22;10205;49.678;6.560;2023-03-26T08:03:24;12.00;71.00
20091;DHT22;10205;49.678;6.560;2023-03-26T08:06:11;12.00;72.00
20091;DHT22;10205;49.678;6.560;2023-03-26T08:08:48;12.00;70.80
20091;DHT22;10205;49.678;6.560;2023-03-26T08:11:29;12.10;71.00
20091;DHT22;10205;49.678;6.560;2023-03-26T08:14:21;12.10;71.70
20091;DHT22;10205;49.678;6.560;2023-03-26T08:17:00;12.10;71.60
20091;DHT22;10205;49.678;6.560;2023-03-26T08:19:40;12.10;71.10
20091;DHT22;10205;49.678;6.560;2023-03-26T08:22:16;12.20;71.30
20091;DHT22;10205;49.678;6.560;2023-03-26T08:25:02;12.20;71.60
20091;DHT22;10205;49.678;6.560;2023-03-26T08:27:45;12.20;72.30
20091;DHT22;10205;49.678;6.560;2023-03-26T08:30:20;12.30;72.10
20091;DHT22;10205;49.678;6.560;2023-03-26T08:32:53;12.30;71.90
20091;DHT22;10205;49.678;6.560;2023-03-26T08:35:23;12.40;71.70
20091;DHT22;10205;49.678;6.560;2023-03-26T08:37:52;12.40;71.80
20091;DHT22;10205;49.678;6.560;2023-03-26T08:40:33;12.40;71.50
20091;DHT22;10205;49.678;6.560;2023-03-26T08:46:52;12.50;72.50
20091;DHT22;10205;49.678;6.560;2023-03-26T08:49:52;12.60;71.90
20091;DHT22;10205;49.678;6.560;2023-03-26T08:55:51;12.70;72.10
20091;DHT22;10205;49.678;6.560;2023-03-26T08:58:40;12.80;71.10
20091;DHT22;10205;49.678;6.560;2023-03-26T09:08:24;12.90;71.40
20091;DHT22;10205;49.678;6.560;2023-03-26T09:11:46;12.90;70.70
20091;DHT22;10205;49.678;6.560;2023-03-26T09:18:15;13.00;70.90
20091;DHT22;10205;49.678;6.560;2023-03-26T09:21:24;13.00;71.00
20091;DHT22;10205;49.678;6.560;2023-03-26T09:27:38;13.10;70.20
20091;DHT22;10205;49.678;6.560;2023-03-26T09:30:34;13.10;70.00
20091;DHT22;10205;49.678;6.560;2023-03-26T09:36:45;13.20;70.20
20091;DHT22;10205;49.678;6.560;2023-03-26T09:39:33;13.20;69.60
20091;DHT22;10205;49.678;6.560;2023-03-26T09:42:23;13.30;69.60
20091;DHT22;10205;49.678;6.560;2023-03-26T09:45:42;13.30;69.80
20091;DHT22;10205;49.678;6.560;2023-03-26T09:48:53;13.30;69.50
20091;DHT22;10205;49.678;6.560;2023-03-26T09:51:55;13.30;70.30
20091;DHT22;10205;49.678;6.560;2023-03-26T09:54:51;13.40;70.10
20091;DHT22;10205;49.678;6.560;2023-03-26T09:57:55;13.50;69.30
20091;DHT22;10205;49.678;6.560;2023-03-26T10:00:38;13.50;68.80
20091;DHT22;10205;49.678;6.560;2023-03-26T10:03:19;13.60;68.80
20091;DHT22;10205;49.678;6.560;2023-03-26T10:09:21;13.70;68.80
20091;DHT22;10205;49.678;6.560;2023-03-26T10:12:06;13.70;68.50
20091;DHT22;10205;49.678;6.560;2023-03-26T10:14:53;13.80;68.40
20091;DHT22;10205;49.678;6.560;2023-03-26T10:17:45;13.80;68.40
20091;DHT22;10205;49.678;6.560;2023-03-26T10:20:51;13.90;67.80
20091;DHT22;10205;49.678;6.560;2023-03-26T10:23:43;14.00;67.60
20091;DHT22;10205;49.678;6.560;2023-03-26T10:26:51;14.00;67.50
20091;DHT22;10205;49.678;6.560;2023-03-26T10:29:57;14.10;67.80
20091;DHT22;10205;49.678;6.560;2023-03-26T10:32:45;14.10;67.20
20091;DHT22;10205;49.678;6.560;2023-03-26T10:35:22;14.20;66.70
20091;DHT22;10205;49.678;6.560;2023-03-26T10:38:12;14.20;66.40
20091;DHT22;10205;49.678;6.560;2023-03-26T10:40:50;14.20;66.30
20091;DHT22;10205;49.678;6.560;2023-03-26T10:50:52;14.40;65.40
20091;DHT22;10205;49.678;6.560;2023-03-26T10:53:34;14.40;65.60
20091;DHT22;10205;49.678;6.560;2023-03-26T10:56:11;14.40;65.60
20091;DHT22;10205;49.678;6.560;2023-03-26T10:58:47;14.50;66.00
20091;DHT22;10205;49.678;6.560;2023-03-26T11:01:19;14.50;65.70
20091;DHT22;10205;49.678;6.560;2023-03-26T11:04:05;14.60;65.00
20091;DHT22;10205;49.678;6.560;2023-03-26T11:06:51;14.60;64.50
20091;DHT22;10205;49.678;6.560;2023-03-26T11:09:32;14.60;64.40
20091;DHT22;10205;49.678;6.560;2023-03-26T11:12:11;14.70;64.30
20091;DHT22;10205;49.678;6.560;2023-03-26T11:14:49;14.70;64.20
20091;DHT22;10205;49.678;6.560;2023-03-26T11:17:32;14.70;63.70
20091;DHT22;10205;49.678;6.560;2023-03-26T11:20:12;14.80;63.80
20091;DHT22;10205;49.678;6.560;2023-03-26T11:22:52;14.80;64.00
20091;DHT22;10205;49.678;6.560;2023-03-26T11:25:42;14.80;64.30
20091;DHT22;10205;49.678;6.560;2023-03-26T11:28:37;14.80;64.30
20091;DHT22;10205;49.678;6.560;2023-03-26T11:31:23;14.90;64.20
20091;DHT22;10205;49.678;6.560;2023-03-26T11:34:02;14.90;64.40
20091;DHT22;10205;49.678;6.560;2023-03-26T11:36:36;14.90;65.10
20091;DHT22;10205;49.678;6.560;2023-03-26T11:39:12;15.00;64.40
20091;DHT22;10205;49.678;6.560;2023-03-26T11:41:45;15.00;64.50
20091;DHT22;10205;49.678;6.560;2023-03-26T11:44:19;15.00;64.50
20091;DHT22;10205;49.678;6.560;2023-03-26T11:46:52;15.00;64.60
20091;DHT22;10205;49.678;6.560;2023-03-26T11:49:24;15.00;64.50
20091;DHT22;10205;49.678;6.560;2023-03-26T11:51:55;15.10;64.30
20091;DHT22;10205;49.678;6.560;2023-03-26T11:54:23;15.10;64.40
20091;DHT22;10205;49.678;6.560;2023-03-26T11:56:53;15.10;63.90
20091;DHT22;10205;49.678;6.560;2023-03-26T11:59:26;15.20;63.50
20091;DHT22;10205;49.678;6.560;2023-03-26T12:01:57;15.20;63.00
20091;DHT22;10205;49.678;6.560;2023-03-26T12:04:26;15.20;62.80
20091;DHT22;10205;49.678;6.560;2023-03-26T12:07:06;15.30;62.70
20091;DHT22;10205;49.678;6.560;2023-03-26T12:09:49;15.30;62.60
20091;DHT22;10205;49.678;6.560;2023-03-26T12:12:17;15.30;63.40
20091;DHT22;10205;49.678;6.560;2023-03-26T12:14:46;15.30;62.50
20091;DHT22;10205;49.678;6.560;2023-03-26T12:17:23;15.40;62.30
20091;DHT22;10205;49.678;6.560;2023-03-26T12:19:53;15.40;61.90
20091;DHT22;10205;49.678;6.560;2023-03-26T12:22:30;15.40;62.50
20091;DHT22;10205;49.678;6.560;2023-03-26T12:25:13;15.40;62.60
20091;DHT22;10205;49.678;6.560;2023-03-26T12:27:42;15.40;62.80
20091;DHT22;10205;49.678;6.560;2023-03-26T12:30:20;15.50;63.60
20091;DHT22;10205;49.678;6.560;2023-03-26T12:32:50;15.50;63.40
20091;DHT22;10205;49.678;6.560;2023-03-26T12:35:24;15.50;63.60
20091;DHT22;10205;49.678;6.560;2023-03-26T12:38:13;15.50;63.40
20091;DHT22;10205;49.678;6.560;2023-03-26T12:40:47;15.60;63.20
20091;DHT22;10205;49.678;6.560;2023-03-26T12:43:22;15.60;63.20
20091;DHT22;10205;49.678;6.560;2023-03-26T12:45:55;15.60;62.50
20091;DHT22;10205;49.678;6.560;2023-03-26T12:48:24;15.70;62.80
20091;DHT22;10205;49.678;6.560;2023-03-26T12:51:03;15.70;62.40
20091;DHT22;10205;49.678;6.560;2023-03-26T12:54:01;15.70;62.50
20091;DHT22;10205;49.678;6.560;2023-03-26T12:56:44;15.80;62.30
20091;DHT22;10205;49.678;6.560;2023-03-26T12:59:28;15.80;62.30
20091;DHT22;10205;49.678;6.560;2023-03-26T13:02:20;15.80;61.70
20091;DHT22;10205;49.678;6.560;2023-03-26T13:05:14;15.90;61.90
20091;DHT22;10205;49.678;6.560;2023-03-26T13:07:58;15.90;61.90
20091;DHT22;10205;49.678;6.560;2023-03-26T13:10:51;16.00;61.00
20091;DHT22;10205;49.678;6.560;2023-03-26T13:14:01;16.00;60.90
20091;DHT22;10205;49.678;6.560;2023-03-26T13:16:41;16.00;60.60
20091;DHT22;10205;49.678;6.560;2023-03-26T13:19:21;16.00;60.90
20091;DHT22;10205;49.678;6.560;2023-03-26T13:22:01;16.00;60.70
20091;DHT22;10205;49.678;6.560;2023-03-26T13:24:46;16.10;60.60
20091;DHT22;10205;49.678;6.560;2023-03-26T13:27:36;16.10;60.50
20091;DHT22;10205;49.678;6.560;2023-03-26T13:30:22;16.10;60.50
20091;DHT22;10205;49.678;6.560;2023-03-26T13:33:21;16.10;60.20
20091;DHT22;10205;49.678;6.560;2023-03-26T13:35:59;16.20;60.40
20091;DHT22;10205;49.678;6.560;2023-03-26T13:38:44;16.20;60.30
20091;DHT22;10205;49.678;6.560;2023-03-26T13:41:25;16.20;59.80
20091;DHT22;10205;49.678;6.560;2023-03-26T13:44:12;16.30;60.10
20091;DHT22;10205;49.678;6.560;2023-03-26T13:46:51;16.30;59.60
20091;DHT22;10205;49.678;6.560;2023-03-26T13:49:26;16.30;59.60
20091;DHT22;10205;49.678;6.560;2023-03-26T13:52:04;16.40;59.70
20091;DHT22;10205;49.678;6.560;2023-03-26T13:54:38;16.40;59.60
20091;DHT22;10205;49.678;6.560;2023-03-26T13:57:15;16.40;59.50
20091;DHT22;10205;49.678;6.560;2023-03-26T13:59:54;16.40;58.60
20091;DHT22;10205;49.678;6.560;2023-03-26T14:02:29;16.40;58.30
20091;DHT22;10205;49.678;6.560;2023-03-26T14:05:05;16.40;58.20
20091;DHT22;10205;49.678;6.560;2023-03-26T14:07:42;16.30;58.40
20091;DHT22;10205;49.678;6.560;2023-03-26T14:10:17;16.30;58.60
20091;DHT22;10205;49.678;6.560;2023-03-26T14:12:53;16.30;58.50
20091;DHT22;10205;49.678;6.560;2023-03-26T14:15:29;16.30;58.30
20091;DHT22;10205;49.678;6.560;2023-03-26T14:18:09;16.30;58.40
20091;DHT22;10205;49.678;6.560;2023-03-26T14:21:08;16.30;58.90
20091;DHT22;10205;49.678;6.560;2023-03-26T14:27:23;16.30;59.20
20091;DHT22;10205;49.678;6.560;2023-03-26T14:30:33;16.20;59.10
20091;DHT22;10205;49.678;6.560;2023-03-26T14:33:47;16.20;59.40
20091;DHT22;10205;49.678;6.560;2023-03-26T14:36:35;16.20;59.10
20091;DHT22;10205;49.678;6.560;2023-03-26T14:42:42;16.10;60.50
20091;DHT22;10205;49.678;6.560;2023-03-26T14:45:52;16.00;60.00
20091;DHT22;10205;49.678;6.560;2023-03-26T14:52:09;15.90;60.00
20091;DHT22;10205;49.678;6.560;2023-03-26T14:54:44;15.90;60.50
20091;DHT22;10205;49.678;6.560;2023-03-26T14:57:52;15.90;60.80
20091;DHT22;10205;49.678;6.560;2023-03-26T15:00:58;15.90;60.40
20091;DHT22;10205;49.678;6.560;2023-03-26T15:13:40;16.00;61.30
20091;DHT22;10205;49.678;6.560;2023-03-26T15:23:16;16.00;60.90
20091;DHT22;10205;49.678;6.560;2023-03-26T15:26:20;16.00;60.50
20091;DHT22;10205;49.678;6.560;2023-03-26T15:29:32;15.90;60.30
20091;DHT22;10205;49.678;6.560;2023-03-26T15:33:04;15.90;60.40
20091;DHT22;10205;49.678;6.560;2023-03-26T15:36:15;15.90;60.50
20091;DHT22;10205;49.678;6.560;2023-03-26T15:42:45;15.80;60.50
20091;DHT22;10205;49.678;6.560;2023-03-26T15:45:31;15.70;60.80
20091;DHT22;10205;49.678;6.560;2023-03-26T15:51:42;15.70;60.60
20091;DHT22;10205;49.678;6.560;2023-03-26T15:54:22;15.60;60.40
20091;DHT22;10205;49.678;6.560;2023-03-26T15:57:15;15.60;60.80
20091;DHT22;10205;49.678;6.560;2023-03-26T15:59:58;15.60;60.40
20091;DHT22;10205;49.678;6.560;2023-03-26T16:02:45;15.60;61.10
20091;DHT22;10205;49.678;6.560;2023-03-26T16:05:31;15.50;61.00
20091;DHT22;10205;49.678;6.560;2023-03-26T16:08:14;15.50;61.00
20091;DHT22;10205;49.678;6.560;2023-03-26T16:10:54;15.50;60.90
20091;DHT22;10205;49.678;6.560;2023-03-26T16:13:31;15.50;61.20
20091;DHT22;10205;49.678;6.560;2023-03-26T16:16:22;15.50;61.30
20091;DHT22;10205;49.678;6.560;2023-03-26T16:22:54;15.50;60.50
20091;DHT22;10205;49.678;6.560;2023-03-26T16:25:30;15.50;60.00
20091;DHT22;10205;49.678;6.560;2023-03-26T16:28:19;15.50;60.80
20091;DHT22;10205;49.678;6.560;2023-03-26T16:31:21;15.40;59.90
20091;DHT22;10205;49.678;6.560;2023-03-26T16:33:54;15.40;59.70
20091;DHT22;10205;49.678;6.560;2023-03-26T16:36:29;15.30;59.90
20091;DHT22;10205;49.678;6.560;2023-03-26T16:39:36;15.30;60.00
20091;DHT22;10205;49.678;6.560;2023-03-26T16:45:19;15.30;59.50
20091;DHT22;10205;49.678;6.560;2023-03-26T16:47:58;15.20;60.30
20091;DHT22;10205;49.678;6.560;2023-03-26T16:50:38;15.20;60.10
20091;DHT22;10205;49.678;6.560;2023-03-26T16:53:34;15.10;60.60
20091;DHT22;10205;49.678;6.560;2023-03-26T16:56:15;15.10;60.90
20091;DHT22;10205;49.678;6.560;2023-03-26T16:58:55;15.10;60.90
20091;DHT22;10205;49.678;6.560;2023-03-26T17:01:42;15.10;61.10
20091;DHT22;10205;49.678;6.560;2023-03-26T17:04:15;15.10;61.00
20091;DHT22;10205;49.678;6.560;2023-03-26T17:06:54;15.10;61.70
20091;DHT22;10205;49.678;6.560;2023-03-26T17:09:52;15.10;61.40
20091;DHT22;10205;49.678;6.560;2023-03-26T17:12:32;15.10;61.50
20091;DHT22;10205;49.678;6.560;2023-03-26T17:15:10;15.10;61.80
20091;DHT22;10205;49.678;6.560;2023-03-26T17:18:04;15.10;61.50
20091;DHT22;10205;49.678;6.560;2023-03-26T17:20:49;15.10;61.80
20091;DHT22;10205;49.678;6.560;2023-03-26T17:23:31;15.10;61.90
20091;DHT22;10205;49.678;6.560;2023-03-26T17:26:17;15.10;61.80
20091;DHT22;10205;49.678;6.560;2023-03-26T17:29:00;15.10;61.90
20091;DHT22;10205;49.678;6.560;2023-03-26T17:31:40;15.10;62.10
20091;DHT22;10205;49.678;6.560;2023-03-26T17:37:44;15.10;60.90
20091;DHT22;10205;49.678;6.560;2023-03-26T17:40:44;15.00;60.70
20091;DHT22;10205;49.678;6.560;2023-03-26T17:43:34;15.00;61.10
20091;DHT22;10205;49.678;6.560;2023-03-26T17:46:16;14.90;61.10
20091;DHT22;10205;49.678;6.560;2023-03-26T17:48:56;14.80;61.50
20091;DHT22;10205;49.678;6.560;2023-03-26T17:51:34;14.80;61.20
20091;DHT22;10205;49.678;6.560;2023-03-26T17:54:07;14.80;61.20